AirNav   Everest Fuels
 
 1392 users online  

37CA Billy Joe Airport
Temecula, California, USA

GOING TO TEMECULA?


FAA INFORMATION EFFECTIVE 25 FEBRUARY 2021

Location

FAA Identifier: 37CA
Lat/Long: 33-30-25.1020N 117-04-17.1040W
33-30.418367N 117-04.285067W
33.5069728,-117.0714178
(estimated)
Elevation: 1350 ft. / 411.5 m (surveyed)
Variation: 14E (1985)
From city: 4 miles NE of TEMECULA, CA
Time zone: UTC -8 (UTC -7 during Daylight Saving Time)
Zip code: 92592

Airport Operations

Airport use: Private use. Permission required prior to landing
Activation date: 07/1981
Control tower: no
ARTCC: LOS ANGELES CENTER
FSS: RIVERSIDE FLIGHT SERVICE STATION
Attendance: UNATNDD
Wind indicator: yes
Segmented circle: no

Airport Communications

WX AWOS-3 at F70 (5 nm NW): 119.025 (951-696-1018)
WX AWOS-3P at L18 (13 nm SW): 118.425 (760-723-6073)
WX AWOS-3PT at HMT (14 nm N): 118.375 (951-925-6886)

Nearby radio navigation aids

VOR radial/distance  VOR name  Freq  Var
HDFr147/(17.1)HOMELAND VOR113.4014E
OCNr032/23.6OCEANSIDE VORTAC115.3015E
JLIr297/32.8JULIAN VORTAC114.0015E
RALr131/(32.9)RIVERSIDE VOR112.4014E
PDZr122/33.7PARADISE VORTAC112.2015E
ELBr093/34.5EL TORO VOR/DME117.2014E
PSPr223/38.7PALM SPRINGS VORTAC115.5013E

Airport Services

Runway Information

Runway 4/22

Dimensions: 2200 x 40 ft. / 671 x 12 m
Surface: dirt, in good condition
Operational restrictions: LAND RWY 04, TAKEOFF RWY 22.
RUNWAY 4  RUNWAY 22
Traffic pattern: leftleft

Airport Ownership and Management from official FAA records

Ownership: Privately-owned
Owner: AIRSTRIP COMMUNITY ASSOC.
33800 LINDA ROSEA ROAD
TEMECULA, CA 92592
Phone (951) 676-5434
Manager: JOAN DEFAZIO
33800 LINDA ROSEA ROAD
TEMECULA, CA 92592
Phone (951) 676-5434

Additional Remarks

RWY OIL SURFACED.
FOR CD CTC LOS ANGELES ARTCC AT 661-575-2079.

Instrument Procedures

There are no published instrument procedures at 37CA.

Some nearby airports with instrument procedures:

F70 - French Valley Airport (5 nm NW)
L18 - Fallbrook Community Airpark (13 nm SW)
KHMT - Hemet-Ryan Airport (14 nm N)
KNFG - Camp Pendleton MCAS (Munn Field) Airport (19 nm SW)
KOKB - Bob Maxwell Memorial Airfield (22 nm SW)
 
Loc | Ops | Rwys | IFR | FBO | Links
Com | Nav | Svcs | Stats | Notes

San Bernardino International Airport Authority
 
Area around 37CA (Billy Joe Airport)
 
Road maps at: MapQuest Bing Google
 
Aerial photo
No photo
 
Sectional chart

 
Airport distance calculator
Flying to Billy Joe Airport? Find the distance to fly.

From to 37CA

Sunrise and sunset
Times for 05-Mar-2021
 Local
(UTC-8)
 Zulu
(UTC)
Morning civil twilight05:4813:48
Sunrise06:1314:13
Sunset17:4701:47
Evening civil twilight18:1202:12

Current date and time
Zulu (UTC)  05-Mar-2021 15:57:16
Local (UTC-8)  05-Mar-2021 07:57:16
 
METAR
KF70 
5nm NW 
051555Z AUTO 36004KT 10SM CLR 10/04 A3018 RMK AO1
KL18 
13nm SW 
051555Z AUTO 03003KT 10SM CLR 15/04 A3016 RMK AO2
KHMT 
14nm N 
051555Z AUTO 00000KT 10SM CLR 07/05 A3019 RMK AO2 T00690047
KNFG 
19nm SW 
051455Z AUTO 00000KT 10SM CLR 06/03 A3016 RMK AO2 SLP213 T00610028 53002
TAF
KNFG 
19nm SW 
0509/0609 VRB05KT 9999 SKC QNH3006INS BECMG 0518/0520 23009KT 9999 SKC QNH2997INS BECMG 0600/0602 VRB05KT 9999 FEW240 QNH2997INS T07/0514Z T21/0521Z
NOTAMs
Click for the latest NOTAMs
NOTAMs are issued by the DoD/FAA and will open in a separate window not controlled by AirNav.

 

 
 

Would you like to see your business listed on this page?

 If your business provides an interesting product or service to pilots, flight crews, aircraft, or users of the Billy Joe Airport, you should consider listing it here.  To start the listing process, click on the button below
 
Add a business
 

Other Pages about Billy Joe Airport

Update a link
 
Copyright © AirNav, LLC. All rights reserved. Privacy Policy  Contact